Aeroporto :
LOGIN :

Iscrizione | Disclaimer

   EN    FR    IT 

 










Sommario :    VFR   VFR Marginale   IFR   IFR Intensivo   IFR Molto Intensivo
Visibilità : 
Base nubi : 
>= 8 km
>= 3000ft
5 / 8 km
1000 / 3000 ft
1500m / 5 km
500 / 1000 ft
800 / 1500m
200 / 500 ft
< 800m
< 200 ft
Simboli :   Temporali  Nebbia  Neve Forte  Precipitazioni Forti  Vento > 20 kt
SIGMETs :   Varie  Temporali  Ghiacco  Turbolenza  Onda orograficha  Ceneri Vulcaniche






- Altitudine del aeroporto : 291 ft
- Codice IATA : ORY


LFPO - Paris-Orly

ULTIMO METAR :
  • 171800Z ///05KT 9999 FEW022 SCT040 07/04 Q1021 TEMPO 22020G35KT BKN025TCU

METARs OBSOLETI :
  • 171730Z 29009KT 8000 FEW028CB BKN040 08/05 Q1021 TEMPO 22020G35KT BKN025TCU
  • 171700Z 24011KT 9999 FEW036TCU BKN050 10/03 Q1020 TEMPO 22020G35KT BKN025TCU
  • 171630Z 24014KT 9999 FEW041 SCT053 10/03 Q1019 TEMPO 22020G35KT BKN025TCU
  • 171600Z 25015KT 9999 FEW039 11/03 Q1019 TEMPO 22020G35KT BKN025TCU
  • 171530Z 24018KT 9999 FEW039 11/03 Q1018 TEMPO 22020G35KT BKN025TCU

TAF TAF LFPO
Valido dal 17 a 18 ore il 19 a 00 ore UTC


171700Z 1718/1824 22015G25KT 9999 SCT035
TEMPO 1718/1721 -SHRA BKN025TCU
PROB40
TEMPO 1718/1719 22020G35KT 3000 SHRA BKN025CB
BECMG 1721/1724 23010KT
BECMG 1810/1812 21015G25KT SCT025
TEMPO 1816/1819 -SHRA BKN030TCU
ATIS : +33 1 49 75 65 80



MetMap, La meteo Aeronautica in un colpo d'occhio ! - Copyright ORBIFLY Dicembre 2007 - Disclaimer

ORBIFLY MET'MAP TEAM :

Programmazione e sviluppo : Alexandra Zaïnal
Concezione : Baudouin d'Aumeries
Aiuto per la programmazione : Marc-Olivier Méhu
Supporto tecnico e logistico : Manuel Goepfert
Aiuto per la traduzione : Arnaldo La Scala

Contatto : metmap@orbifly.com




FONTI E CREDITI :

   NOAA